createdAt,value
2023-04-12T00:01:02.968Z,6.97
2023-04-12T00:03:30.668Z,13.95
2023-04-12T00:05:57.864Z,17.70
2023-04-12T00:08:26.470Z,15.43
2023-04-12T00:10:53.531Z,14.35
2023-04-12T00:13:20.426Z,22.05
2023-04-12T00:15:47.188Z,15.90
2023-04-12T00:18:14.000Z,17.17
2023-04-12T00:20:41.024Z,9.90
2023-04-12T00:23:09.756Z,8.65
2023-04-12T00:25:39.313Z,9.55
2023-04-12T00:28:06.784Z,12.30
2023-04-12T00:30:33.797Z,9.70
2023-04-12T00:33:00.530Z,9.48
2023-04-12T00:35:27.315Z,8.38
2023-04-12T00:37:54.869Z,6.88
2023-04-12T00:40:22.332Z,10.95
2023-04-12T00:42:49.168Z,9.13
2023-04-12T00:45:16.305Z,9.80
2023-04-12T00:47:43.471Z,9.55
2023-04-12T00:50:11.042Z,7.40
2023-04-12T00:52:39.175Z,10.48
2023-04-12T00:55:07.501Z,12.50
2023-04-12T00:57:37.237Z,10.48
2023-04-12T01:00:06.186Z,14.25
2023-04-12T01:02:34.739Z,9.32
2023-04-12T01:05:02.347Z,10.77
2023-04-12T01:07:38.905Z,9.65
2023-04-12T01:10:08.871Z,10.23
2023-04-12T01:12:38.609Z,8.40
2023-04-12T01:15:12.256Z,10.02
2023-04-12T01:17:47.652Z,9.80
2023-04-12T01:20:23.654Z,11.27
2023-04-12T01:23:08.890Z,8.95
2023-04-12T01:26:03.723Z,10.70
2023-04-12T01:28:34.954Z,10.98
2023-04-12T01:31:03.301Z,14.88
2023-04-12T01:33:31.712Z,7.30
2023-04-12T01:36:00.902Z,9.00
2023-04-12T01:38:28.455Z,10.63
2023-04-12T01:40:56.267Z,9.43
2023-04-12T01:43:22.932Z,8.52
2023-04-12T01:45:49.745Z,10.65
2023-04-12T01:48:17.464Z,9.80
2023-04-12T01:51:02.531Z,9.15
2023-04-12T01:53:39.045Z,10.93
2023-04-12T01:56:09.547Z,11.88
2023-04-12T01:58:39.674Z,8.88
2023-04-12T02:01:08.181Z,11.10
2023-04-12T02:03:37.332Z,10.75
2023-04-12T02:06:06.057Z,8.77
2023-04-12T02:08:33.794Z,12.60
2023-04-12T02:11:00.660Z,13.43
2023-04-12T02:13:27.373Z,10.95
2023-04-12T02:15:54.973Z,12.40
2023-04-12T02:18:21.735Z,12.25
2023-04-12T02:20:50.066Z,14.80
2023-04-12T02:23:16.846Z,12.52
2023-04-12T02:25:46.490Z,11.00
2023-04-12T02:28:13.665Z,15.02
2023-04-12T02:30:41.689Z,13.35
2023-04-12T02:33:09.524Z,15.60
2023-04-12T02:35:37.662Z,13.98
2023-04-12T02:38:07.887Z,20.50
2023-04-12T02:40:38.210Z,16.10
2023-04-12T02:43:05.008Z,15.30
2023-04-12T02:45:31.706Z,18.75
2023-04-12T02:47:58.475Z,22.10
2023-04-12T02:50:25.295Z,19.10
2023-04-12T02:52:52.180Z,16.30
2023-04-12T02:55:19.060Z,16.95
2023-04-12T02:57:45.952Z,18.25
2023-04-12T03:00:13.257Z,19.38
2023-04-12T03:02:41.156Z,21.13
2023-04-12T03:05:08.775Z,16.15
2023-04-12T03:07:38.737Z,19.42
2023-04-12T03:10:09.411Z,18.45
2023-04-12T03:12:36.171Z,17.88
2023-04-12T03:15:03.173Z,18.48
2023-04-12T03:17:29.956Z,19.73
2023-04-12T03:19:58.046Z,17.45
2023-04-12T03:22:26.178Z,17.95
2023-04-12T03:24:52.958Z,18.30
2023-04-12T03:27:19.701Z,13.10
2023-04-12T03:29:46.446Z,16.45
2023-04-12T03:32:13.525Z,17.80
2023-04-12T03:34:40.254Z,16.75
2023-04-12T03:37:07.065Z,20.13
2023-04-12T03:39:33.770Z,19.98
2023-04-12T03:42:00.481Z,18.17
2023-04-12T03:44:27.195Z,18.52
2023-04-12T03:46:55.339Z,19.33
2023-04-12T03:49:22.174Z,19.35
2023-04-12T03:51:50.537Z,19.95
2023-04-12T03:54:17.754Z,18.05
2023-04-12T03:56:46.114Z,17.70
2023-04-12T03:59:14.633Z,18.33
2023-04-12T04:01:41.915Z,17.42
2023-04-12T04:04:08.928Z,19.02
2023-04-12T04:06:36.050Z,19.20
2023-04-12T04:09:02.847Z,18.70
2023-04-12T04:11:29.568Z,19.88
2023-04-12T04:13:56.477Z,18.27
2023-04-12T04:16:23.612Z,24.02
2023-04-12T04:18:50.512Z,20.33
2023-04-12T04:21:17.264Z,19.42
2023-04-12T04:23:45.492Z,18.92
2023-04-12T04:26:12.475Z,19.95
2023-04-12T04:28:45.041Z,16.67
2023-04-12T04:31:12.784Z,28.15
2023-04-12T04:33:40.273Z,19.55
2023-04-12T04:36:07.979Z,20.58
2023-04-12T04:38:34.923Z,25.17
2023-04-12T04:41:02.501Z,18.65
2023-04-12T04:43:30.378Z,23.70
2023-04-12T04:45:57.855Z,18.15
2023-04-12T04:48:24.940Z,25.05
2023-04-12T04:50:52.870Z,23.90
2023-04-12T04:53:22.160Z,23.73
2023-04-12T04:55:49.160Z,19.90
2023-04-12T04:58:16.614Z,28.80
2023-04-12T05:00:46.348Z,28.88
2023-04-12T05:03:13.211Z,21.02
2023-04-12T05:05:40.478Z,22.73
2023-04-12T05:08:07.410Z,26.67
2023-04-12T05:10:34.164Z,20.73
2023-04-12T05:13:00.919Z,24.75
2023-04-12T05:15:27.728Z,23.02
2023-04-12T05:17:54.542Z,29.38
2023-04-12T05:20:21.398Z,29.48
2023-04-12T05:22:48.190Z,25.25
2023-04-12T05:25:14.941Z,21.60
2023-04-12T05:27:41.699Z,22.55
2023-04-12T05:30:09.222Z,23.48
2023-04-12T05:32:36.064Z,21.85
2023-04-12T05:35:02.878Z,18.23
2023-04-12T05:37:29.701Z,21.00
2023-04-12T05:39:56.521Z,18.00
2023-04-12T05:42:23.224Z,25.00
2023-04-12T05:44:50.900Z,25.23
2023-04-12T05:47:17.560Z,23.65
2023-04-12T05:49:44.235Z,21.95
2023-04-12T05:52:11.090Z,22.65
2023-04-12T05:54:37.815Z,20.42
2023-04-12T05:57:04.618Z,24.55
2023-04-12T05:59:31.651Z,26.90
2023-04-12T06:01:59.143Z,27.25
2023-04-12T06:04:38.433Z,21.67
2023-04-12T06:07:16.463Z,20.70
2023-04-12T06:09:43.156Z,19.45
2023-04-12T06:12:09.848Z,20.42
2023-04-12T06:14:36.616Z,21.60
2023-04-12T06:17:03.365Z,20.98
2023-04-12T06:19:30.109Z,17.67
2023-04-12T06:21:57.122Z,22.92
2023-04-12T06:24:23.879Z,20.98
2023-04-12T06:26:50.683Z,20.80
2023-04-12T06:29:17.657Z,18.98
2023-04-12T06:31:44.533Z,24.73
2023-04-12T06:34:11.382Z,20.15
2023-04-12T06:36:40.187Z,22.85
2023-04-12T06:39:07.943Z,22.50
2023-04-12T06:41:34.670Z,20.55
2023-04-12T06:44:01.448Z,20.73
2023-04-12T06:46:28.904Z,22.55
2023-04-12T06:48:55.690Z,21.92
2023-04-12T06:51:22.573Z,22.02
2023-04-12T06:53:49.299Z,24.75
2023-04-12T06:56:18.339Z,20.00
2023-04-12T06:58:45.818Z,21.90
2023-04-12T07:01:13.553Z,20.65
2023-04-12T07:03:40.812Z,25.63
2023-04-12T07:06:17.606Z,18.65
2023-04-12T07:08:51.065Z,23.55
2023-04-12T07:11:21.598Z,26.35
2023-04-12T07:13:49.385Z,19.88
2023-04-12T07:16:16.671Z,23.27
2023-04-12T07:18:43.738Z,19.08
2023-04-12T07:21:14.231Z,19.35
2023-04-12T07:23:41.227Z,20.02
2023-04-12T07:26:08.294Z,17.70
2023-04-12T07:28:36.193Z,20.92
2023-04-12T07:31:06.282Z,19.42
2023-04-12T07:33:34.930Z,19.50
2023-04-12T07:36:02.436Z,18.83
2023-04-12T07:38:29.341Z,19.05
2023-04-12T07:40:57.266Z,20.23
2023-04-12T07:43:24.360Z,21.25
2023-04-12T07:45:51.960Z,15.48
2023-04-12T07:48:18.827Z,21.10
2023-04-12T07:50:45.618Z,21.52
2023-04-12T07:53:26.837Z,22.30
2023-04-12T07:55:54.677Z,18.77
2023-04-12T07:58:23.068Z,15.93
2023-04-12T08:00:50.843Z,20.95
2023-04-12T08:03:18.789Z,26.95
2023-04-12T08:05:46.636Z,21.50
2023-04-12T08:08:13.339Z,20.65
2023-04-12T08:10:40.828Z,19.13
2023-04-12T08:13:07.873Z,20.25
2023-04-12T08:15:34.755Z,23.83
2023-04-12T08:18:02.547Z,20.75
2023-04-12T08:20:29.548Z,20.65
2023-04-12T08:22:56.586Z,18.13
2023-04-12T08:25:24.326Z,17.70
2023-04-12T08:27:51.475Z,21.30
2023-04-12T08:30:18.869Z,20.98
2023-04-12T08:32:45.885Z,18.92
2023-04-12T08:35:14.981Z,21.23
2023-04-12T08:37:42.331Z,18.35
2023-04-12T08:40:09.394Z,21.67
2023-04-12T08:42:37.281Z,18.38
2023-04-12T08:45:12.122Z,16.02
2023-04-12T08:47:43.793Z,15.43
2023-04-12T08:50:13.872Z,16.10
2023-04-12T08:52:42.017Z,19.85
2023-04-12T08:55:11.219Z,14.52
2023-04-12T08:57:41.262Z,16.27
2023-04-12T09:00:13.086Z,15.90
2023-04-12T09:02:43.376Z,14.30
2023-04-12T09:05:10.418Z,15.48
2023-04-12T09:07:37.157Z,15.30
2023-04-12T09:10:04.818Z,13.85
2023-04-12T09:12:31.900Z,15.35
2023-04-12T09:15:15.712Z,16.02
2023-04-12T09:17:42.878Z,16.42
2023-04-12T09:20:12.580Z,14.98
2023-04-12T09:22:44.643Z,20.17
2023-04-12T09:25:15.215Z,17.42
2023-04-12T09:27:54.165Z,20.15
2023-04-12T09:30:21.179Z,14.93
2023-04-12T09:32:49.514Z,14.50
2023-04-12T09:35:16.783Z,13.88
2023-04-12T09:37:43.744Z,19.42
2023-04-12T09:40:11.198Z,13.95
2023-04-12T09:42:52.583Z,14.70
2023-04-12T09:45:25.456Z,15.77
2023-04-12T09:47:53.634Z,18.52
2023-04-12T09:50:25.804Z,15.23
2023-04-12T09:52:54.422Z,13.85
2023-04-12T09:55:29.004Z,13.95
2023-04-12T09:57:56.797Z,14.23
2023-04-12T10:00:26.815Z,13.10
2023-04-12T10:02:55.688Z,13.95
2023-04-12T10:05:26.696Z,15.18
2023-04-12T10:07:55.254Z,13.43
2023-04-12T10:10:23.109Z,15.15
2023-04-12T10:12:50.691Z,15.70
2023-04-12T10:15:18.557Z,13.55
2023-04-12T10:17:52.082Z,14.38
2023-04-12T10:20:20.527Z,15.27
2023-04-12T10:22:49.876Z,19.00
2023-04-12T10:25:25.656Z,18.00
2023-04-12T10:27:53.008Z,16.80
2023-04-12T10:30:23.841Z,15.45
2023-04-12T10:33:02.702Z,15.90
2023-04-12T10:35:30.894Z,20.15
2023-04-12T10:38:00.284Z,16.60
2023-04-12T10:40:31.812Z,14.63
2023-04-12T10:43:23.197Z,20.17
2023-04-12T10:45:50.554Z,16.35
2023-04-12T10:48:37.874Z,14.60
2023-04-12T10:51:18.197Z,18.90
2023-04-12T10:53:46.884Z,16.05
2023-04-12T10:56:32.667Z,19.02
2023-04-12T10:59:04.303Z,18.80
2023-04-12T11:01:31.934Z,16.40
2023-04-12T11:04:09.197Z,18.80
2023-04-12T11:06:53.409Z,15.27
2023-04-12T11:09:30.277Z,15.17
2023-04-12T11:12:04.093Z,17.60
2023-04-12T11:14:52.148Z,15.32
2023-04-12T11:17:18.858Z,19.20
2023-04-12T11:19:57.348Z,17.73
2023-04-12T11:22:27.446Z,18.95
2023-04-12T11:24:56.761Z,19.50
2023-04-12T11:27:24.957Z,13.32
2023-04-12T11:29:54.597Z,12.13
2023-04-12T11:32:23.384Z,13.85
2023-04-12T11:34:50.420Z,12.95
2023-04-12T11:37:20.421Z,15.63
2023-04-12T11:39:48.625Z,14.07
2023-04-12T11:42:29.621Z,29.88
2023-04-12T11:44:59.846Z,16.55
2023-04-12T11:47:30.496Z,15.25
2023-04-12T11:49:59.220Z,14.90
2023-04-12T11:52:31.488Z,18.63
2023-04-12T11:55:01.853Z,16.35
2023-04-12T11:57:28.981Z,15.25
2023-04-12T11:59:58.664Z,13.63
2023-04-12T12:02:28.749Z,17.02
2023-04-12T12:04:57.760Z,13.65
2023-04-12T12:07:25.185Z,14.27
2023-04-12T12:09:52.113Z,12.02
2023-04-12T12:12:18.980Z,13.88
2023-04-12T12:14:47.498Z,16.80
2023-04-12T12:17:17.058Z,14.60
2023-04-12T12:19:46.414Z,16.38
2023-04-12T12:22:20.046Z,14.77
2023-04-12T12:24:49.958Z,18.25
2023-04-12T12:27:24.836Z,14.82
2023-04-12T12:29:55.234Z,14.88
2023-04-12T12:32:23.616Z,16.83
2023-04-12T12:34:54.864Z,16.25
2023-04-12T12:37:25.541Z,13.60
2023-04-12T12:40:15.502Z,19.20
2023-04-12T12:42:54.750Z,12.23
2023-04-12T12:45:23.960Z,14.88
2023-04-12T12:48:00.742Z,13.07
2023-04-12T12:50:29.937Z,13.65
2023-04-12T12:52:57.495Z,13.75
2023-04-12T12:55:24.586Z,15.70
2023-04-12T12:58:07.537Z,15.25
2023-04-12T13:00:35.536Z,14.55
2023-04-12T13:03:03.255Z,14.18
2023-04-12T13:05:30.816Z,16.55
2023-04-12T13:07:57.518Z,17.55
2023-04-12T13:10:26.560Z,14.35
2023-04-12T13:12:53.636Z,16.65
2023-04-12T13:15:23.954Z,16.50
2023-04-12T13:17:55.858Z,15.13
2023-04-12T13:20:23.281Z,21.05
2023-04-12T13:22:52.049Z,16.83
2023-04-12T13:25:22.273Z,15.25
2023-04-12T13:27:49.666Z,13.40
2023-04-12T13:30:17.429Z,15.27
2023-04-12T13:32:46.975Z,11.82
2023-04-12T13:35:13.774Z,15.05
2023-04-12T13:37:40.535Z,17.08
2023-04-12T13:40:08.089Z,17.05
2023-04-12T13:42:34.822Z,16.42
2023-04-12T13:45:01.876Z,13.98
2023-04-12T13:47:28.782Z,18.40
2023-04-12T13:49:55.679Z,15.23
2023-04-12T13:52:22.654Z,13.77
2023-04-12T13:54:49.468Z,15.95
2023-04-12T13:57:16.311Z,13.75
2023-04-12T13:59:43.011Z,18.25
2023-04-12T14:02:09.864Z,15.07
2023-04-12T14:04:36.812Z,14.05
2023-04-12T14:07:03.565Z,14.77
2023-04-12T14:09:32.299Z,14.98
2023-04-12T14:12:01.672Z,14.15
2023-04-12T14:14:28.535Z,14.32
2023-04-12T14:16:59.142Z,14.13
2023-04-12T14:19:26.475Z,15.43
2023-04-12T14:21:53.658Z,15.27
2023-04-12T14:24:21.346Z,14.00
2023-04-12T14:26:50.065Z,13.32
2023-04-12T14:29:17.288Z,15.05
2023-04-12T14:31:44.212Z,14.95
2023-04-12T14:34:13.401Z,15.45
2023-04-12T14:36:40.311Z,16.02
2023-04-12T14:39:10.484Z,14.82
2023-04-12T14:41:38.563Z,17.98
2023-04-12T14:44:05.561Z,15.07
2023-04-12T14:46:32.748Z,14.05
2023-04-12T14:49:01.297Z,16.92
2023-04-12T14:51:29.202Z,16.38
2023-04-12T14:53:56.710Z,17.70
2023-04-12T14:56:27.854Z,16.15
2023-04-12T14:58:56.521Z,12.45
2023-04-12T15:01:25.420Z,15.63
2023-04-12T15:03:53.456Z,16.20
2023-04-12T15:06:22.974Z,13.48
2023-04-12T15:08:57.335Z,20.35
2023-04-12T15:11:26.703Z,12.40
2023-04-12T15:13:54.907Z,11.35
2023-04-12T15:16:22.556Z,13.90
2023-04-12T15:18:51.329Z,18.00
2023-04-12T15:21:18.349Z,12.02
2023-04-12T15:23:45.431Z,17.27
2023-04-12T15:26:14.045Z,19.90
2023-04-12T15:28:40.963Z,16.25
2023-04-12T15:31:09.152Z,17.15
2023-04-12T15:33:36.581Z,15.55
2023-04-12T15:36:04.709Z,15.80
2023-04-12T15:38:31.739Z,15.27
2023-04-12T15:41:01.359Z,12.35
2023-04-12T15:43:28.732Z,20.27
2023-04-12T15:45:56.247Z,20.75
2023-04-12T15:48:25.258Z,19.73
2023-04-12T15:50:53.696Z,17.23
2023-04-12T15:53:23.267Z,19.77
2023-04-12T15:55:54.225Z,15.23
2023-04-12T15:58:25.370Z,20.98
2023-04-12T16:00:54.173Z,18.45
2023-04-12T16:03:26.246Z,20.13
2023-04-12T16:05:54.207Z,19.60
2023-04-12T16:08:22.101Z,20.33
2023-04-12T16:10:50.479Z,18.67
2023-04-12T16:13:17.332Z,26.35
2023-04-12T16:15:44.310Z,23.02
2023-04-12T16:18:11.214Z,20.80
2023-04-12T16:20:39.395Z,27.15
2023-04-12T16:23:06.476Z,20.30
2023-04-12T16:25:34.169Z,21.65
2023-04-12T16:28:02.728Z,17.35
2023-04-12T16:30:32.819Z,25.23
2023-04-12T16:32:59.850Z,22.45
2023-04-12T16:35:26.831Z,20.63
2023-04-12T16:37:54.577Z,24.52
2023-04-12T16:40:22.192Z,23.33
2023-04-12T16:42:49.091Z,20.98
2023-04-12T16:45:15.893Z,19.40
2023-04-12T16:47:42.885Z,20.98
2023-04-12T16:50:10.283Z,22.30
2023-04-12T16:52:38.130Z,20.80
2023-04-12T16:55:05.839Z,19.02
2023-04-12T16:57:33.834Z,20.00
2023-04-12T17:00:00.676Z,20.45
2023-04-12T17:02:27.671Z,21.17
2023-04-12T17:04:54.770Z,20.60
2023-04-12T17:07:21.732Z,19.83
2023-04-12T17:09:48.434Z,19.48
2023-04-12T17:12:15.138Z,19.08
2023-04-12T17:14:41.967Z,17.30
2023-04-12T17:17:08.766Z,17.95
2023-04-12T17:19:35.980Z,22.42
2023-04-12T17:22:02.788Z,17.35
2023-04-12T17:24:29.677Z,18.38
2023-04-12T17:26:57.240Z,16.88
2023-04-12T17:29:24.621Z,17.33
2023-04-12T17:31:54.185Z,16.73
2023-04-12T17:34:22.189Z,16.70
2023-04-12T17:36:49.166Z,16.38
2023-04-12T17:39:16.371Z,17.65
2023-04-12T17:41:43.473Z,15.23
2023-04-12T17:44:10.277Z,16.42
2023-04-12T17:46:37.337Z,19.70
2023-04-12T17:49:05.991Z,20.83
2023-04-12T17:51:33.402Z,21.58
2023-04-12T17:54:00.768Z,22.52
2023-04-12T17:56:28.169Z,20.15
2023-04-12T17:58:55.467Z,21.25
2023-04-12T18:01:22.731Z,22.10
2023-04-12T18:03:50.156Z,23.83
2023-04-12T18:06:18.685Z,24.95
2023-04-12T18:08:46.973Z,22.98
2023-04-12T18:11:14.723Z,24.25
2023-04-12T18:13:41.956Z,27.02
2023-04-12T18:16:09.036Z,28.88
2023-04-12T18:18:36.271Z,29.65
2023-04-12T18:21:04.709Z,25.67
2023-04-12T18:23:31.692Z,25.35
2023-04-12T18:25:58.517Z,28.58
2023-04-12T18:28:25.339Z,27.35
2023-04-12T18:30:52.126Z,26.30
2023-04-12T18:33:18.929Z,23.02
2023-04-12T18:35:45.695Z,28.88
2023-04-12T18:38:12.496Z,26.30
2023-04-12T18:40:39.524Z,25.02
2023-04-12T18:43:06.480Z,24.67
2023-04-12T18:45:37.805Z,28.73
2023-04-12T18:48:05.123Z,28.17
2023-04-12T18:50:31.991Z,29.67
2023-04-12T18:52:58.955Z,28.25
2023-04-12T18:55:26.288Z,33.88
2023-04-12T18:57:53.340Z,31.95
2023-04-12T19:00:21.524Z,29.80
2023-04-12T19:02:49.787Z,35.60
2023-04-12T19:05:18.751Z,32.65
2023-04-12T19:07:46.926Z,34.22
2023-04-12T19:10:15.064Z,29.67
2023-04-12T19:12:43.425Z,34.45
2023-04-12T19:15:12.169Z,31.60
2023-04-12T19:17:41.580Z,32.35
2023-04-12T19:20:12.029Z,39.58
2023-04-12T19:22:43.161Z,34.33
2023-04-12T19:25:19.586Z,36.15
2023-04-12T19:27:49.024Z,32.75
2023-04-12T19:30:18.776Z,36.67
2023-04-12T19:32:47.935Z,34.75
2023-04-12T19:35:18.147Z,37.08
2023-04-12T19:37:53.036Z,30.98
2023-04-12T19:40:25.456Z,33.20
2023-04-12T19:42:54.873Z,34.88
2023-04-12T19:45:29.509Z,38.08
2023-04-12T19:47:58.014Z,30.13
2023-04-12T19:50:27.880Z,34.78
2023-04-12T19:52:58.379Z,35.00
2023-04-12T19:55:32.530Z,32.95
2023-04-12T19:58:01.772Z,33.10
2023-04-12T20:00:32.551Z,34.17
2023-04-12T20:03:02.003Z,32.05
2023-04-12T20:05:31.628Z,31.63
2023-04-12T20:08:11.943Z,32.55
2023-04-12T20:10:45.834Z,33.97
2023-04-12T20:13:15.928Z,33.92
2023-04-12T20:15:44.454Z,28.05
2023-04-12T20:18:14.902Z,30.17
2023-04-12T20:20:45.443Z,34.92
2023-04-12T20:25:56.678Z,28.75
2023-04-12T20:28:29.735Z,29.27
2023-04-12T20:31:03.541Z,27.63
2023-04-12T20:33:32.859Z,28.20
2023-04-12T20:36:02.589Z,29.42
2023-04-12T20:38:31.084Z,27.65
2023-04-12T20:41:02.675Z,21.58
2023-04-12T20:43:32.173Z,24.48
2023-04-12T20:46:02.291Z,22.30
2023-04-12T20:48:32.744Z,21.35
2023-04-12T20:51:01.309Z,18.52
2023-04-12T20:53:31.359Z,21.52
2023-04-12T20:55:59.850Z,23.13
2023-04-12T20:58:35.425Z,22.02
2023-04-12T21:03:34.875Z,20.67
2023-04-12T21:06:02.845Z,19.02
2023-04-12T21:08:31.644Z,23.83
2023-04-12T21:10:59.842Z,16.98
2023-04-12T21:13:27.953Z,21.92
2023-04-12T21:15:55.127Z,21.92
2023-04-12T21:18:22.547Z,23.42
2023-04-12T21:20:51.135Z,23.60
2023-04-12T21:23:19.504Z,22.05
2023-04-12T21:25:50.786Z,23.33
2023-04-12T21:28:18.183Z,21.83
2023-04-12T21:30:46.210Z,23.83
2023-04-12T21:33:13.712Z,24.85
2023-04-12T21:35:40.974Z,23.10
2023-04-12T21:38:08.402Z,23.58
2023-04-12T21:40:35.053Z,23.05
2023-04-12T21:43:02.098Z,24.95
2023-04-12T21:45:29.098Z,28.92
2023-04-12T21:47:56.243Z,27.27
2023-04-12T21:50:23.261Z,25.98
2023-04-12T21:52:49.923Z,33.00
2023-04-12T21:55:16.785Z,29.13
2023-04-12T21:57:44.061Z,32.70
2023-04-12T22:00:11.453Z,30.10
2023-04-12T22:02:38.457Z,32.50
2023-04-12T22:05:05.664Z,36.78
2023-04-12T22:07:33.471Z,33.20
2023-04-12T22:10:01.833Z,33.17
2023-04-12T22:12:28.661Z,34.88
2023-04-12T22:14:57.578Z,37.10
2023-04-12T22:17:24.626Z,41.15
2023-04-12T22:19:55.050Z,38.63
2023-04-12T22:22:22.096Z,38.63
2023-04-12T22:24:48.794Z,37.40
2023-04-12T22:27:16.609Z,39.28
2023-04-12T22:29:43.610Z,37.85
2023-04-12T22:32:10.392Z,38.88
2023-04-12T22:34:37.265Z,38.17
2023-04-12T22:37:04.423Z,37.25
2023-04-12T22:39:34.028Z,36.00
2023-04-12T22:42:00.888Z,42.92
2023-04-12T22:44:29.101Z,42.13
2023-04-12T22:46:56.717Z,41.25
2023-04-12T22:49:27.208Z,42.70
2023-04-12T22:51:57.741Z,41.58
2023-04-12T22:54:25.406Z,40.42
2023-04-12T22:56:52.648Z,41.20
2023-04-12T22:59:20.150Z,37.10
2023-04-12T23:01:47.524Z,37.00
2023-04-12T23:04:16.121Z,40.83
2023-04-12T23:06:44.215Z,40.92
2023-04-12T23:09:12.508Z,42.05
2023-04-12T23:11:41.071Z,41.10
2023-04-12T23:14:09.707Z,44.45
2023-04-12T23:16:42.488Z,44.67
2023-04-12T23:19:09.458Z,43.28
2023-04-12T23:21:37.160Z,36.47
2023-04-12T23:24:05.137Z,42.83
2023-04-12T23:26:34.475Z,39.55
2023-04-12T23:29:04.573Z,45.50
2023-04-12T23:31:34.307Z,41.20
2023-04-12T23:34:02.801Z,41.40
2023-04-12T23:36:30.260Z,43.30
2023-04-12T23:39:00.159Z,43.88
2023-04-12T23:41:31.533Z,41.60
2023-04-12T23:43:59.433Z,41.13
2023-04-12T23:46:26.898Z,43.17
2023-04-12T23:48:53.707Z,40.83
2023-04-12T23:51:21.106Z,45.83
2023-04-12T23:53:47.825Z,42.40
2023-04-12T23:56:14.580Z,45.75
2023-04-12T23:58:41.500Z,46.60
